Time;durP1;ratioP1;P1;durP2;ratioP2;P2;SDS_P1;SDS_P2;PMS_P1;PMS_P2;Temp;Humidity;BMP_temperature;BMP_pressure;BME280_temperature;BME280_humidity;BME280_pressure;Samples;Min_cycle;Max_cycle;Signal;HPM_P1;HPM_P2
2022/03/02 00:01:00;;;;;;;12.82;6.30;;;;;;;0.31;46.08;101219.38;5075339;28;20525;-68
2022/03/02 00:03:28;;;;;;;14.98;6.28;;;;;;;0.28;45.45;101208.88;5103629;28;20485;-69
2022/03/02 00:05:57;;;;;;;14.07;6.28;;;;;;;0.24;46.22;101207.16;5113477;28;20054;-69
2022/03/02 00:08:25;;;;;;;14.75;7.00;;;;;;;0.15;46.56;101201.94;5113639;28;20043;-69
2022/03/02 00:10:55;;;;;;;13.77;6.65;;;;;;;0.18;46.97;101201.91;5113431;28;20119;-70
2022/03/02 00:13:23;;;;;;;12.43;6.28;;;;;;;0.16;47.12;101208.91;5113474;28;20164;-69
2022/03/02 00:15:51;;;;;;;15.57;6.35;;;;;;;0.12;47.29;101202.81;5113478;28;20043;-76
2022/03/02 00:18:19;;;;;;;17.02;6.78;;;;;;;0.06;47.28;101199.31;5113512;28;20048;-69
2022/03/02 00:20:48;;;;;;;14.73;6.93;;;;;;;0.04;47.31;101198.47;5113747;28;20451;-69
2022/03/02 00:23:16;;;;;;;15.80;7.20;;;;;;;-0.03;46.78;101194.97;5112626;28;20043;-70
2022/03/02 00:25:44;;;;;;;13.43;7.47;;;;;;;-0.09;47.99;101203.75;5092930;28;20074;-70
2022/03/02 00:28:18;;;;;;;17.67;7.37;;;;;;;-0.04;47.17;101201.09;5082123;28;20492;-70
2022/03/02 00:30:46;;;;;;;15.48;6.53;;;;;;;-0.11;47.52;101197.59;5113585;28;20123;-70
2022/03/02 00:33:15;;;;;;;15.38;7.07;;;;;;;-0.15;47.63;101203.72;5113078;28;20065;-69
2022/03/02 00:35:43;;;;;;;13.02;6.32;;;;;;;-0.16;49.02;101196.75;5113338;28;20048;-69
2022/03/02 00:38:11;;;;;;;16.10;7.18;;;;;;;-0.16;48.36;101191.50;5113130;28;20472;-69
2022/03/02 00:40:41;;;;;;;12.80;6.57;;;;;;;-0.20;49.00;101181.88;5113516;28;20542;-69
2022/03/02 00:43:10;;;;;;;16.42;7.25;;;;;;;-0.24;48.57;101187.13;5113023;28;20047;-69
2022/03/02 00:45:40;;;;;;;14.57;6.88;;;;;;;-0.34;49.61;101181.03;5113003;28;20051;-69
2022/03/02 00:48:09;;;;;;;15.63;7.18;;;;;;;-0.39;49.74;101181.00;5112628;28;20042;-69
2022/03/02 00:50:37;;;;;;;18.83;7.32;;;;;;;-0.43;49.88;101178.41;5113044;28;20492;-69
2022/03/02 00:53:07;;;;;;;14.75;6.47;;;;;;;-0.51;49.94;101177.53;5112706;28;20073;-69
2022/03/02 00:55:36;;;;;;;16.75;6.75;;;;;;;-0.64;49.93;101168.81;5113317;28;20476;-69
2022/03/02 00:58:06;;;;;;;14.05;6.65;;;;;;;-0.67;51.04;101168.81;5094321;28;20143;-69
2022/03/02 01:00:35;;;;;;;12.90;6.38;;;;;;;-0.57;51.13;101167.09;5116660;28;20546;-69
2022/03/02 01:03:05;;;;;;;14.02;6.50;;;;;;;-0.56;51.13;101159.22;5116856;28;20039;-70
2022/03/02 01:05:34;;;;;;;12.48;6.18;;;;;;;-0.66;51.85;101160.09;5117004;28;20428;-69
2022/03/02 01:08:02;;;;;;;14.00;7.03;;;;;;;-0.78;51.90;101149.56;5116548;28;20104;-69
2022/03/02 01:10:31;;;;;;;14.73;6.78;;;;;;;-0.84;52.71;101142.63;5116960;28;20047;-69
2022/03/02 01:12:59;;;;;;;13.82;6.35;;;;;;;-0.88;52.47;101141.72;5116159;28;20532;-70
2022/03/02 01:15:28;;;;;;;14.70;6.75;;;;;;;-0.94;53.71;101138.25;5116842;28;20048;-69
2022/03/02 01:17:56;;;;;;;14.35;7.10;;;;;;;-0.94;53.67;101140.84;5116314;28;20074;-70
2022/03/02 01:20:26;;;;;;;15.02;6.88;;;;;;;-0.95;53.89;101129.50;5117083;28;20050;-70
2022/03/02 01:22:55;;;;;;;17.00;7.47;;;;;;;-0.81;53.64;101137.38;5116446;28;20040;-70
2022/03/02 01:25:23;;;;;;;18.55;8.82;;;;;;;-0.64;53.91;101133.00;5116464;28;20112;-70
2022/03/02 01:27:51;;;;;;;27.15;12.05;;;;;;;-0.93;54.85;101129.50;5116627;28;20043;-69
2022/03/02 01:30:21;;;;;;;31.50;12.77;;;;;;;-0.88;54.54;101127.75;5116546;28;20442;-70
2022/03/02 01:32:49;;;;;;;25.75;12.27;;;;;;;-0.84;54.49;101126.91;5116360;28;20062;-70
2022/03/02 01:35:17;;;;;;;27.60;12.18;;;;;;;-0.93;54.63;101124.28;5115944;28;20051;-69
2022/03/02 01:37:47;;;;;;;25.48;12.20;;;;;;;-0.99;54.97;101119.00;5116545;28;20043;-70
2022/03/02 01:40:16;;;;;;;23.55;11.68;;;;;;;-1.06;55.90;101118.16;5116094;28;20044;-69
2022/03/02 01:42:45;;;;;;;26.40;11.85;;;;;;;-1.14;56.00;101112.03;5116263;28;20040;-69
2022/03/02 01:45:17;;;;;;;25.05;10.70;;;;;;;-1.00;55.26;101115.53;5115592;28;20492;-69
2022/03/02 01:47:45;;;;;;;25.60;10.75;;;;;;;-0.98;55.08;101112.91;5116155;28;20035;-69
2022/03/02 01:50:15;;;;;;;25.13;10.80;;;;;;;-1.05;54.69;101106.81;5116140;28;20036;-69
2022/03/02 01:52:44;;;;;;;22.67;10.38;;;;;;;-0.90;53.72;101114.66;5115751;28;20059;-70
2022/03/02 01:55:15;;;;;;;21.27;10.05;;;;;;;-1.02;53.87;101108.56;5115540;28;20118;-70
2022/03/02 01:57:45;;;;;;;21.17;10.50;;;;;;;-1.01;54.06;101105.94;5115841;28;20126;-70
2022/03/02 02:00:18;;;;;;;27.75;11.85;;;;;;;-1.11;54.65;101095.44;5115708;28;20054;-70
2022/03/02 02:02:47;;;;;;;31.17;13.35;;;;;;;-1.18;54.67;101105.91;5115858;28;20066;-70
2022/03/02 02:05:16;;;;;;;32.38;14.20;;;;;;;-1.23;54.66;101106.78;5115653;28;20043;-70
2022/03/02 02:07:46;;;;;;;27.17;12.15;;;;;;;-1.31;54.13;101101.53;5115951;28;20453;-70
2022/03/02 02:10:17;;;;;;;24.50;10.90;;;;;;;-1.15;52.71;101099.81;5114749;28;20035;-70
2022/03/02 02:12:45;;;;;;;25.60;11.90;;;;;;;-0.88;50.59;101097.19;5115610;28;20035;-70
2022/03/02 02:15:14;;;;;;;29.42;13.05;;;;;;;-0.62;49.53;101084.06;5115187;28;20049;-70
2022/03/02 02:17:42;;;;;;;29.52;13.95;;;;;;;-0.76;50.60;101092.84;5115313;28;20143;-70
2022/03/02 02:20:12;;;;;;;30.35;12.98;;;;;;;-1.04;52.25;101094.59;5115431;28;20120;-70
2022/03/02 02:22:43;;;;;;;26.42;12.68;;;;;;;-1.26;53.03;101094.53;5115577;28;20123;-69
2022/03/02 02:25:12;;;;;;;27.42;12.52;;;;;;;-1.30;53.42;101095.41;5115340;28;20038;-70
2022/03/02 02:27:48;;;;;;;25.55;11.15;;;;;;;-1.16;52.78;101084.94;5095336;28;20040;-70
2022/03/02 02:30:16;;;;;;;23.42;10.93;;;;;;;-1.00;52.71;101093.69;5094443;28;20036;-70
2022/03/02 02:32:45;;;;;;;27.70;10.43;;;;;;;-1.06;52.83;101093.69;5094981;28;20048;-70
2022/03/02 02:35:14;;;;;;;22.33;10.20;;;;;;;-0.86;52.38;101081.50;5094664;28;20044;-70
2022/03/02 02:37:43;;;;;;;21.95;10.60;;;;;;;-1.05;53.45;101087.59;5094871;28;20042;-70
2022/03/02 02:40:14;;;;;;;20.23;9.93;;;;;;;-0.92;53.05;101084.97;5094521;28;20067;-70
2022/03/02 02:42:45;;;;;;;24.08;11.27;;;;;;;-0.85;53.39;101085.00;5076670;28;20051;-70
2022/03/02 02:45:15;;;;;;;26.95;12.02;;;;;;;-1.09;53.87;101091.94;5094494;28;20032;-69
2022/03/02 02:47:44;;;;;;;23.90;11.30;;;;;;;-1.22;54.40;101084.97;5095006;28;20052;-69
2022/03/02 02:50:18;;;;;;;23.27;11.52;;;;;;;-1.10;54.18;101092.81;5094512;28;20485;-70
2022/03/02 02:52:48;;;;;;;25.40;11.57;;;;;;;-1.05;54.07;101090.22;5076551;28;20477;-70
2022/03/02 02:55:17;;;;;;;22.27;11.32;;;;;;;-1.25;54.71;101078.00;5094339;28;20445;-70
2022/03/02 02:57:49;;;;;;;26.33;11.23;;;;;;;-1.34;55.20;101084.97;5076407;28;20135;-70
2022/03/02 03:00:19;;;;;;;26.25;11.30;;;;;;;-1.18;55.13;101090.19;5093910;28;20054;-69
2022/03/02 03:02:50;;;;;;;23.10;11.57;;;;;;;-1.18;55.14;101090.19;5094550;28;20478;-67
2022/03/02 03:05:21;;;;;;;27.77;11.40;;;;;;;-1.25;55.43;101096.31;5093932;28;20039;-68
2022/03/02 03:07:51;;;;;;;26.35;11.52;;;;;;;-1.29;55.70;101102.41;5094480;28;20044;-69
2022/03/02 03:10:19;;;;;;;26.88;11.90;;;;;;;-1.33;55.50;101095.44;5093725;28;20123;-69
2022/03/02 03:12:48;;;;;;;24.20;12.13;;;;;;;-1.36;56.21;101094.53;5076094;28;20056;-67
2022/03/02 03:15:19;;;;;;;23.00;11.23;;;;;;;-1.24;55.70;101098.06;5093822;28;20051;-69
2022/03/02 03:17:48;;;;;;;24.70;11.63;;;;;;;-1.40;55.92;101098.91;5093988;28;20056;-69
2022/03/02 03:20:19;;;;;;;22.40;11.20;;;;;;;-1.34;56.01;101092.81;5093836;28;20063;-69
2022/03/02 03:22:48;;;;;;;24.20;11.73;;;;;;;-1.38;55.86;101094.53;5093469;28;20094;-69
2022/03/02 03:25:18;;;;;;;22.45;10.88;;;;;;;-1.46;55.87;101098.88;5093615;28;20082;-69
2022/03/02 03:27:47;;;;;;;24.50;11.23;;;;;;;-1.48;56.16;101092.75;5094114;28;20093;-69
2022/03/02 03:30:19;;;;;;;24.00;10.90;;;;;;;-1.46;56.59;101094.50;5093475;28;20078;-69
2022/03/02 03:32:48;;;;;;;24.95;11.73;;;;;;;-1.22;55.64;101098.94;5093901;28;20405;-69
2022/03/02 03:35:18;;;;;;;25.45;12.30;;;;;;;-1.40;56.33;101098.91;5093560;28;20393;-69
2022/03/02 03:37:46;;;;;;;22.10;11.48;;;;;;;-1.24;55.86;101094.56;5093689;28;20051;-69
2022/03/02 03:40:16;;;;;;;22.20;11.10;;;;;;;-1.16;55.40;101093.72;5093501;28;20097;-69
2022/03/02 03:42:46;;;;;;;24.65;11.63;;;;;;;-1.40;55.74;101083.19;5093551;28;20047;-69
2022/03/02 03:45:15;;;;;;;22.33;11.30;;;;;;;-1.39;56.88;101089.28;5093609;28;20054;-69
2022/03/02 03:47:44;;;;;;;23.00;11.98;;;;;;;-1.32;56.29;101093.69;5093912;28;20044;-69
2022/03/02 03:50:13;;;;;;;22.77;11.60;;;;;;;-1.47;56.92;101081.44;5092912;28;20036;-69
2022/03/02 03:52:41;;;;;;;25.17;11.88;;;;;;;-1.56;57.55;101086.63;5093657;28;20119;-69
2022/03/02 03:55:12;;;;;;;25.55;11.77;;;;;;;-1.52;57.57;101085.78;5093339;28;20067;-69
2022/03/02 03:57:42;;;;;;;23.33;11.18;;;;;;;-1.65;57.87;101090.09;5093296;28;20074;-69
2022/03/02 04:00:14;;;;;;;22.65;11.32;;;;;;;-1.78;58.32;101086.56;5092764;28;20052;-69
2022/03/02 04:02:43;;;;;;;23.90;10.97;;;;;;;-1.74;58.40;101088.34;5093369;28;20173;-69
2022/03/02 04:05:12;;;;;;;23.42;11.07;;;;;;;-1.76;58.31;101082.22;5093385;28;20284;-69
2022/03/02 04:07:46;;;;;;;27.60;11.63;;;;;;;-1.83;58.78;101077.88;5093286;28;20081;-67
2022/03/02 04:10:15;;;;;;;23.67;11.90;;;;;;;-1.84;58.98;101059.53;5074461;28;20051;-69
2022/03/02 04:12:47;;;;;;;23.27;11.18;;;;;;;-1.83;59.29;101079.59;5093389;28;20040;-68
2022/03/02 04:15:19;;;;;;;26.13;12.48;;;;;;;-1.96;59.51;101073.44;5092688;28;20052;-69
2022/03/02 04:17:48;;;;;;;24.42;12.02;;;;;;;-1.89;59.55;101079.56;5093814;28;20063;-67
2022/03/02 04:20:16;;;;;;;29.38;12.27;;;;;;;-1.90;59.84;101080.44;5093019;28;20044;-70
2022/03/02 04:22:44;;;;;;;22.58;11.45;;;;;;;-1.82;59.18;101078.72;5093451;28;20058;-70
2022/03/02 04:25:12;;;;;;;25.60;11.40;;;;;;;-1.88;60.14;101079.56;5092889;28;20087;-70
2022/03/02 04:27:41;;;;;;;27.65;12.10;;;;;;;-1.88;59.86;101074.34;5093139;28;20047;-70
2022/03/02 04:30:11;;;;;;;24.90;11.43;;;;;;;-1.94;60.19;101074.31;5092705;28;20412;-70
2022/03/02 04:32:44;;;;;;;24.48;11.80;;;;;;;-2.11;61.29;101082.09;5093632;28;20040;-70
2022/03/02 04:35:13;;;;;;;25.48;12.93;;;;;;;-2.03;60.72;101074.28;5097238;28;20425;-70
2022/03/02 04:37:43;;;;;;;25.65;11.98;;;;;;;-2.09;61.21;101077.75;5097197;28;20040;-70
2022/03/02 04:40:12;;;;;;;24.45;11.07;;;;;;;-2.16;61.38;101069.88;5096518;28;20089;-70
2022/03/02 04:42:42;;;;;;;23.38;11.40;;;;;;;-1.99;61.05;101067.34;5079453;28;20457;-69
2022/03/02 04:45:15;;;;;;;24.45;12.10;;;;;;;-2.16;61.25;101070.75;5096799;28;20048;-71
2022/03/02 04:47:44;;;;;;;;;;;;;;;-2.07;60.93;101077.75;5097308;28;20494;-71
2022/03/02 04:50:13;;;;;;;24.83;11.50;;;;;;;-2.07;60.26;101067.28;5096317;28;20284;-71
2022/03/02 04:52:42;;;;;;;28.05;12.45;;;;;;;-2.09;59.76;101067.28;5096938;28;20428;-68
2022/03/02 04:55:10;;;;;;;21.40;11.27;;;;;;;-2.24;59.27;101063.72;5096176;28;20051;-72
2022/03/02 04:57:43;;;;;;;25.05;11.65;;;;;;;-2.07;59.27;101054.22;5096734;28;20051;-70
2022/03/02 05:00:13;;;;;;;22.63;11.27;;;;;;;-1.99;59.33;101055.13;5096593;28;20078;-71
2022/03/02 05:02:42;;;;;;;28.02;12.45;;;;;;;-1.97;60.54;101053.38;5096525;28;20454;-68
2022/03/02 05:05:14;;;;;;;25.08;12.23;;;;;;;-2.05;60.32;101055.09;5096371;28;20101;-77
2022/03/02 05:07:43;;;;;;;24.10;11.27;;;;;;;-2.12;59.61;101053.34;5096783;28;20044;-69
2022/03/02 05:10:13;;;;;;;22.80;11.93;;;;;;;-2.07;60.03;101049.00;5095832;28;20040;-78
2022/03/02 05:12:41;;;;;;;23.98;11.77;;;;;;;-2.26;60.25;101047.16;5096463;28;20048;-69
2022/03/02 05:15:12;;;;;;;26.73;12.25;;;;;;;-2.20;59.89;101039.38;5096409;28;20043;-70
2022/03/02 05:17:42;;;;;;;25.88;11.70;;;;;;;-2.26;60.03;101039.31;5096155;28;20044;-71
2022/03/02 05:20:14;;;;;;;22.67;12.77;;;;;;;-2.35;60.83;101038.41;5096470;28;20063;-69
2022/03/02 05:22:44;;;;;;;27.65;12.27;;;;;;;-2.37;60.97;101053.22;5096478;28;20040;-68
2022/03/02 05:25:13;;;;;;;25.42;12.15;;;;;;;-2.32;60.91;101055.84;5095804;28;20481;-76
2022/03/02 05:27:42;;;;;;;28.10;12.45;;;;;;;-2.34;60.75;101055.84;5096417;28;20448;-69
2022/03/02 05:30:18;;;;;;;28.63;12.45;;;;;;;-2.28;60.67;101054.13;5095874;28;20047;-69
2022/03/02 05:32:46;;;;;;;24.98;12.23;;;;;;;-2.37;61.10;101045.38;5096066;28;20071;-71
2022/03/02 05:35:16;;;;;;;30.25;12.77;;;;;;;-2.16;59.93;101043.72;5098059;28;20453;-67
2022/03/02 05:37:45;;;;;;;27.13;12.63;;;;;;;-2.23;60.69;101041.94;5106482;28;20067;-68
2022/03/02 05:40:16;;;;;;;22.48;11.63;;;;;;;-2.18;60.35;101042.84;5101232;28;20040;-76
2022/03/02 05:42:50;;;;;;;29.05;12.15;;;;;;;-2.27;60.45;101048.03;5108747;28;20372;-68
2022/03/02 05:45:18;;;;;;;26.23;12.07;;;;;;;-2.38;60.83;101046.25;5099561;28;20038;-69
2022/03/02 05:47:46;;;;;;;27.75;12.60;;;;;;;-2.13;60.43;101041.13;5108783;28;20039;-68
2022/03/02 05:50:16;;;;;;;25.05;11.68;;;;;;;-2.31;60.98;101044.56;5095398;28;20044;-70
2022/03/02 05:52:44;;;;;;;25.70;12.05;;;;;;;-2.12;60.64;101043.75;5106919;28;20460;-67
2022/03/02 05:55:12;;;;;;;25.77;12.15;;;;;;;-2.21;61.04;101046.34;5102892;28;20055;-71
2022/03/02 05:57:40;;;;;;;28.65;12.27;;;;;;;-2.10;60.71;101047.25;5110305;28;20089;-66
2022/03/02 06:00:13;;;;;;;27.27;12.70;;;;;;;-2.09;60.88;101043.75;5115961;28;20043;-67
2022/03/02 06:02:42;;;;;;;22.15;12.10;;;;;;;-1.97;60.48;101039.44;5115911;28;20046;-67
2022/03/02 06:05:10;;;;;;;21.23;11.52;;;;;;;-1.82;60.34;101043.00;5115850;28;20043;-67
2022/03/02 06:07:41;;;;;;;27.10;12.90;;;;;;;-1.85;60.71;101042.97;5115459;28;20122;-68
2022/03/02 06:10:11;;;;;;;24.88;12.25;;;;;;;-1.72;60.36;101038.66;5115843;28;20046;-69
2022/03/02 06:12:40;;;;;;;27.33;12.13;;;;;;;-1.70;60.17;101043.88;5115781;28;20040;-70
2022/03/02 06:15:10;;;;;;;33.17;13.82;;;;;;;-1.71;60.42;101045.63;5115824;28;20062;-68
2022/03/02 06:17:39;;;;;;;31.05;12.68;;;;;;;-1.58;60.07;101051.75;5115282;28;20039;-66
2022/03/02 06:20:11;;;;;;;25.42;12.93;;;;;;;-1.56;59.83;101052.63;5115405;28;20100;-67
2022/03/02 06:22:41;;;;;;;26.95;12.23;;;;;;;-1.46;59.09;101054.38;5096808;28;20055;-68
2022/03/02 06:25:11;;;;;;;24.33;11.52;;;;;;;-1.46;58.93;101049.16;5101262;28;20089;-71
2022/03/02 06:27:39;;;;;;;21.85;10.88;;;;;;;-1.41;58.72;101047.44;5096055;28;20124;-72
2022/03/02 06:30:09;;;;;;;25.67;11.23;;;;;;;-1.32;58.28;101044.81;5094348;28;20048;-72
2022/03/02 06:32:38;;;;;;;23.83;11.95;;;;;;;-1.18;57.71;101053.53;5094451;28;20048;-71
2022/03/02 06:35:07;;;;;;;24.15;11.13;;;;;;;-1.05;57.07;101053.56;5095063;28;20050;-71
2022/03/02 06:37:36;;;;;;;19.60;10.32;;;;;;;-1.17;57.32;101041.31;5076849;28;20052;-70
2022/03/02 06:40:10;;;;;;;18.85;10.13;;;;;;;-1.16;57.28;101040.44;5094684;28;20497;-69
2022/03/02 06:43:06;;;;;;;23.73;11.60;;;;;;;-1.21;57.57;101043.06;5094299;28;20440;-70
2022/03/02 06:45:46;;;;;;;23.20;11.15;;;;;;;-1.15;57.40;101042.22;5081734;28;20058;-71
2022/03/02 06:48:20;;;;;;;28.52;10.88;;;;;;;-0.85;56.65;101036.09;5094442;28;20051;-71
2022/03/02 06:50:53;;;;;;;27.98;13.00;;;;;;;-0.71;55.78;101030.81;5094533;28;20050;-69
2022/03/02 06:53:30;;;;;;;43.37;16.80;;;;;;;-0.74;55.81;101033.47;5094233;28;20048;-69
2022/03/02 06:56:01;;;;;;;53.03;19.98;;;;;;;-0.81;56.35;101032.59;5093700;28;20296;-67
2022/03/02 06:58:39;;;;;;;31.05;12.60;;;;;;;-0.70;55.68;101040.41;5093908;28;20048;-68
2022/03/02 07:01:10;;;;;;;23.20;11.60;;;;;;;-0.70;56.37;101036.06;5094292;28;20069;-68
2022/03/02 07:03:45;;;;;;;22.02;10.63;;;;;;;-0.65;56.00;101033.44;5094222;28;20101;-68
2022/03/02 07:06:15;;;;;;;21.75;10.77;;;;;;;-0.50;55.77;101022.03;5094625;28;20093;-68
2022/03/02 07:08:48;;;;;;;30.02;11.57;;;;;;;-0.52;56.01;101023.78;5094562;28;20040;-69
2022/03/02 07:11:19;;;;;;;22.08;10.68;;;;;;;-0.39;55.52;101023.72;5094534;28;20044;-65
2022/03/02 07:13:48;;;;;;;21.23;10.73;;;;;;;-0.26;55.15;101024.59;5094384;28;20048;-69
2022/03/02 07:16:21;;;;;;;24.98;11.07;;;;;;;-0.24;55.26;101025.44;5076138;28;20134;-67
2022/03/02 07:18:51;;;;;;;;;;;;;;;-0.03;54.72;101019.25;5094183;28;20102;-68
2022/03/02 07:21:27;;;;;;;26.05;11.65;;;;;;;-0.10;54.99;101021.00;5093877;28;19969;-68
2022/03/02 07:23:57;;;;;;;24.67;11.30;;;;;;;-0.02;54.93;101020.97;5093823;28;20040;-67
2022/03/02 07:26:28;;;;;;;23.88;11.05;;;;;;;0.18;54.10;101018.25;5094982;28;20036;-68
2022/03/02 07:28:57;;;;;;;24.85;11.05;;;;;;;0.20;54.23;101008.63;5094032;28;20044;-67
2022/03/02 07:31:27;;;;;;;18.73;10.15;;;;;;;0.32;54.76;101005.94;5093511;28;20539;-67
2022/03/02 07:34:07;;;;;;;22.17;10.35;;;;;;;0.46;54.74;101005.81;5093968;28;20377;-67
2022/03/02 07:36:35;;;;;;;21.85;10.32;;;;;;;0.61;53.22;100999.59;5093346;28;20062;-68
2022/03/02 07:39:04;;;;;;;28.67;11.27;;;;;;;0.62;53.49;101015.34;5093855;28;20069;-68
2022/03/02 07:41:34;;;;;;;23.27;10.90;;;;;;;0.73;53.14;101010.00;5093644;28;20393;-68
2022/03/02 07:44:02;;;;;;;21.13;10.77;;;;;;;0.82;52.95;101004.69;5093487;28;20503;-68
2022/03/02 07:46:32;;;;;;;20.63;10.05;;;;;;;0.86;52.46;100995.88;5074973;28;20527;-67
2022/03/02 07:49:02;;;;;;;22.75;10.13;;;;;;;0.97;52.18;100991.44;5093304;28;20044;-67
2022/03/02 07:51:34;;;;;;;23.35;9.57;;;;;;;1.10;51.27;100985.16;5093442;28;20047;-68
2022/03/02 07:54:05;;;;;;;27.30;10.50;;;;;;;1.21;51.08;100979.78;5093781;28;20039;-67
2022/03/02 07:56:35;;;;;;;19.10;9.88;;;;;;;1.35;50.09;100982.25;5093378;28;20097;-67
2022/03/02 07:59:06;;;;;;;18.60;8.65;;;;;;;1.46;49.75;100979.53;5093256;28;20132;-67
2022/03/02 08:01:40;;;;;;;21.02;9.65;;;;;;;1.53;49.69;100974.16;5092957;28;20065;-67
2022/03/02 08:04:11;;;;;;;19.60;9.00;;;;;;;1.73;48.24;100977.44;5093497;28;20047;-67
2022/03/02 08:06:40;;;;;;;14.90;7.70;;;;;;;1.81;48.09;100973.84;5093002;28;20047;-68
2022/03/02 08:09:12;;;;;;;15.10;7.18;;;;;;;1.71;48.66;100966.06;5092692;28;20035;-67
2022/03/02 08:11:42;;;;;;;14.13;6.40;;;;;;;1.96;46.11;100971.03;5093206;28;20040;-67
2022/03/02 08:14:10;;;;;;;11.93;5.72;;;;;;;2.14;44.96;100981.28;5093338;28;20052;-68
2022/03/02 08:16:41;;;;;;;12.63;5.55;;;;;;;2.31;43.34;100978.41;5075188;28;20056;-67
2022/03/02 08:19:09;;;;;;;10.93;5.38;;;;;;;2.36;43.79;100968.69;5093398;28;20139;-67
2022/03/02 08:21:40;;;;;;;11.90;5.97;;;;;;;2.51;43.44;100960.56;5093086;28;20433;-68
2022/03/02 08:24:09;;;;;;;9.52;4.97;;;;;;;2.51;43.48;100955.28;5093405;28;20047;-67
2022/03/02 08:26:40;;;;;;;12.38;5.38;;;;;;;2.49;44.21;100959.69;5092761;28;20048;-67
2022/03/02 08:29:12;;;;;;;15.23;5.72;;;;;;;2.61;43.92;100956.00;5075182;28;20442;-67
2022/03/02 08:31:42;;;;;;;10.93;4.97;;;;;;;2.61;43.67;100961.28;5092641;28;20032;-68
2022/03/02 08:34:11;;;;;;;12.93;4.70;;;;;;;2.69;43.23;100958.50;5093292;28;20044;-67
2022/03/02 08:36:39;;;;;;;11.38;4.82;;;;;;;2.52;44.04;100951.75;5092929;28;20549;-68
2022/03/02 08:39:10;;;;;;;9.52;4.85;;;;;;;2.85;42.97;100958.22;5093112;28;20047;-68
2022/03/02 08:41:39;;;;;;;13.82;5.70;;;;;;;2.86;43.42;100949.41;5092967;28;20068;-68
2022/03/02 08:44:08;;;;;;;10.65;5.13;;;;;;;2.69;43.31;100946.19;5092793;28;20073;-68
2022/03/02 08:46:38;;;;;;;12.38;5.10;;;;;;;2.70;42.97;100945.31;5092578;28;20123;-68
2022/03/02 08:49:06;;;;;;;10.05;4.97;;;;;;;2.76;43.83;100944.34;5093141;28;20040;-68
2022/03/02 08:51:38;;;;;;;12.05;6.03;;;;;;;2.85;42.95;100939.78;5092555;28;20123;-68
2022/03/02 08:54:08;;;;;;;12.45;5.45;;;;;;;3.08;42.01;100941.13;5092801;28;20039;-68
2022/03/02 08:56:39;;;;;;;10.95;5.40;;;;;;;3.27;40.41;100936.38;5092947;28;20051;-68
2022/03/02 08:59:08;;;;;;;12.20;5.25;;;;;;;3.16;40.34;100934.81;5093098;28;20040;-68
2022/03/02 09:01:43;;;;;;;12.25;5.75;;;;;;;3.35;40.75;100935.31;5092396;28;20090;-68
2022/03/02 09:04:15;;;;;;;12.32;5.93;;;;;;;3.52;40.26;100936.75;5093194;28;20048;-67
2022/03/02 09:06:45;;;;;;;12.25;6.38;;;;;;;3.50;39.75;100928.00;5092390;28;20127;-68
2022/03/02 09:09:13;;;;;;;13.20;5.88;;;;;;;3.42;40.29;100926.41;5093017;28;20079;-68
2022/03/02 09:11:43;;;;;;;11.85;6.20;;;;;;;3.50;39.72;100922.75;5092310;28;20044;-68
2022/03/02 09:14:11;;;;;;;13.60;6.38;;;;;;;3.56;39.43;100919.97;5092598;28;20051;-67
2022/03/02 09:16:41;;;;;;;13.93;6.05;;;;;;;3.63;39.24;100919.81;5092507;28;20413;-68
2022/03/02 09:19:10;;;;;;;16.20;6.00;;;;;;;3.56;38.64;100912.03;5093000;28;20048;-68
2022/03/02 09:21:39;;;;;;;12.52;5.80;;;;;;;3.66;37.35;100916.22;5096108;28;20044;-66
2022/03/02 09:24:09;;;;;;;12.27;5.63;;;;;;;3.67;37.89;100916.22;5096480;28;20459;-67
2022/03/02 09:26:39;;;;;;;12.90;5.22;;;;;;;3.67;37.15;100910.94;5077870;28;20105;-66
2022/03/02 09:29:08;;;;;;;13.23;5.85;;;;;;;3.63;37.56;100908.38;5096513;28;20085;-68
2022/03/02 09:31:37;;;;;;;11.93;5.20;;;;;;;3.71;37.20;100906.44;5095834;28;20044;-68
2022/03/02 09:34:10;;;;;;;10.80;5.85;;;;;;;3.73;37.13;100900.22;5096231;28;20089;-67
2022/03/02 09:36:39;;;;;;;9.10;4.72;;;;;;;3.71;36.92;100902.03;5096181;28;20397;-68
2022/03/02 09:39:11;;;;;;;13.18;7.15;;;;;;;3.82;36.88;100906.22;5096206;28;20060;-67
2022/03/02 09:41:49;;;;;;;11.07;5.15;;;;;;;3.93;34.83;100902.44;5078172;28;20106;-68
2022/03/02 09:44:25;;;;;;;10.30;5.60;;;;;;;3.92;34.98;100898.06;5095880;28;20071;-68
2022/03/02 09:46:56;;;;;;;11.57;5.20;;;;;;;3.96;35.37;100891.81;5095944;28;20040;-68
2022/03/02 09:49:30;;;;;;;12.52;6.00;;;;;;;4.10;35.71;100898.53;5095893;28;20068;-68
2022/03/02 09:52:04;;;;;;;12.63;5.63;;;;;;;4.23;35.16;100892.06;5095930;28;20093;-68
2022/03/02 09:54:36;;;;;;;13.80;5.80;;;;;;;4.24;35.16;100893.78;5095998;28;20043;-68
2022/03/02 09:57:06;;;;;;;13.35;5.97;;;;;;;4.14;35.49;100876.44;5077801;28;20134;-68
2022/03/02 09:59:41;;;;;;;10.80;6.03;;;;;;;4.15;36.34;100876.41;5095301;28;20044;-69
2022/03/02 10:02:10;;;;;;;10.93;5.90;;;;;;;4.09;35.99;100873.91;5095976;28;20079;-68
2022/03/02 10:04:49;;;;;;;12.18;5.90;;;;;;;4.36;34.70;100875.03;5095249;28;20505;-68
2022/03/02 10:07:30;;;;;;;8.88;4.97;;;;;;;4.51;33.93;100869.34;5095526;28;20495;-68
2022/03/02 10:10:06;;;;;;;10.40;5.20;;;;;;;4.52;34.25;100868.44;5077359;28;20060;-67
2022/03/02 10:12:35;;;;;;;10.45;5.45;;;;;;;4.54;34.30;100860.50;5095192;28;20040;-75
2022/03/02 10:15:08;;;;;;;13.88;5.57;;;;;;;4.50;34.47;100867.59;5095653;28;20396;-68
2022/03/02 10:17:38;;;;;;;11.53;5.83;;;;;;;4.41;34.39;100854.63;5095200;28;20036;-69
2022/03/02 10:20:11;;;;;;;12.75;5.80;;;;;;;4.50;34.48;100851.75;5095518;28;20036;-68
2022/03/02 10:23:05;;;;;;;12.45;5.40;;;;;;;4.51;34.77;100845.56;5095241;28;20078;-68
2022/03/02 10:25:51;;;;;;;12.38;6.18;;;;;;;4.57;34.78;100845.41;5095461;28;20424;-67
2022/03/02 10:28:27;;;;;;;12.88;5.60;;;;;;;4.77;35.21;100844.03;5095258;28;20055;-68
2022/03/02 10:31:19;;;;;;;11.07;5.57;;;;;;;4.75;34.71;100849.34;5094513;28;20047;-68
2022/03/02 10:33:53;;;;;;;12.30;5.22;;;;;;;4.69;35.35;100848.63;5094749;28;20090;-68
2022/03/02 10:36:27;;;;;;;13.45;5.97;;;;;;;4.55;35.35;100834.03;5095297;28;20040;-68
2022/03/02 10:39:06;;;;;;;13.10;6.07;;;;;;;4.43;36.03;100836.97;5094954;28;20401;-68
2022/03/02 10:41:39;;;;;;;12.05;5.90;;;;;;;4.48;35.84;100827.16;5095130;28;20039;-67
2022/03/02 10:44:17;;;;;;;9.55;5.47;;;;;;;4.87;35.91;100829.66;5095145;28;20044;-68
2022/03/02 10:46:55;;;;;;;10.45;5.47;;;;;;;4.71;36.07;100818.63;5094697;28;20036;-66
2022/03/02 10:49:25;;;;;;;12.20;5.88;;;;;;;4.80;36.56;100809.56;5094918;28;20040;-67
2022/03/02 10:51:56;;;;;;;11.80;5.97;;;;;;;4.77;36.28;100807.03;5094318;28;20040;-68
2022/03/02 10:54:25;;;;;;;10.98;5.65;;;;;;;4.91;36.71;100803.97;5076562;28;20485;-68
2022/03/02 10:56:54;;;;;;;10.15;5.30;;;;;;;5.21;36.45;100789.00;5094452;28;20044;-68
2022/03/02 10:59:26;;;;;;;10.00;5.18;;;;;;;5.20;35.79;100787.28;5094279;28;20047;-68
2022/03/02 11:01:55;;;;;;;11.65;5.43;;;;;;;5.27;36.01;100787.06;5094090;28;20378;-68
2022/03/02 11:04:24;;;;;;;10.70;5.38;;;;;;;5.32;35.30;100781.66;5094518;28;20044;-68
2022/03/02 11:06:56;;;;;;;10.68;5.93;;;;;;;5.23;35.57;100784.56;5094244;28;20527;-68
2022/03/02 11:09:49;;;;;;;11.45;6.20;;;;;;;5.29;35.36;100776.41;5094284;28;20452;-68
2022/03/02 11:12:20;;;;;;;9.98;5.53;;;;;;;5.37;35.33;100782.34;5094078;28;20111;-68
2022/03/02 11:14:57;;;;;;;10.65;5.15;;;;;;;5.52;34.21;100775.75;5094280;28;20074;-68
2022/03/02 11:17:26;;;;;;;12.35;5.40;;;;;;;5.54;34.22;100773.91;5076068;28;20046;-68
2022/03/02 11:19:57;;;;;;;10.32;5.05;;;;;;;5.62;33.74;100778.06;5094068;28;20444;-68
2022/03/02 11:22:28;;;;;;;10.18;5.45;;;;;;;5.54;33.72;100771.25;5094375;28;20101;-68
2022/03/02 11:24:59;;;;;;;10.48;5.45;;;;;;;5.43;33.75;100766.31;5093723;28;20044;-68
2022/03/02 11:27:30;;;;;;;10.85;5.25;;;;;;;5.38;34.15;100758.50;5094266;28;20051;-67
2022/03/02 11:30:11;;;;;;;10.75;4.80;;;;;;;5.34;33.41;100750.72;5093688;28;20044;-67
2022/03/02 11:32:41;;;;;;;9.50;4.63;;;;;;;5.54;33.20;100744.78;5093842;28;20073;-68